createdAt,value
2022-07-26T13:59:09.091Z,21.90
2022-07-26T14:01:42.951Z,22.20
2022-07-26T14:04:13.115Z,20.60
2022-07-26T14:06:41.442Z,21.60
2022-07-26T14:09:11.020Z,22.30
2022-07-26T14:11:39.588Z,21.80
2022-07-26T14:14:08.139Z,21.00
2022-07-26T14:16:36.199Z,22.00
2022-07-26T14:19:04.339Z,22.80
2022-07-26T14:21:38.764Z,23.50
2022-07-26T14:24:21.338Z,20.90
2022-07-26T14:26:48.856Z,22.20
2022-07-26T14:29:16.351Z,22.50
2022-07-26T14:31:45.168Z,24.20
2022-07-26T14:34:13.204Z,22.80
2022-07-26T14:36:41.233Z,22.20
2022-07-26T14:39:09.334Z,22.70
2022-07-26T14:41:37.447Z,20.20
2022-07-26T14:44:05.526Z,22.60
2022-07-26T14:46:33.287Z,21.70
2022-07-26T14:49:00.797Z,22.00
2022-07-26T14:51:28.270Z,21.60
2022-07-26T14:53:55.997Z,22.60
2022-07-26T14:56:23.819Z,22.40
2022-07-26T14:58:52.314Z,22.20
2022-07-26T15:01:19.910Z,21.00
2022-07-26T15:03:49.633Z,20.80
2022-07-26T15:06:17.863Z,20.80
2022-07-26T15:08:45.080Z,21.10
2022-07-26T15:11:12.712Z,21.60
2022-07-26T15:13:40.376Z,22.80
2022-07-26T15:16:08.210Z,22.00
2022-07-26T15:18:35.926Z,23.40
2022-07-26T15:21:03.877Z,25.00
2022-07-26T15:23:32.224Z,22.80
2022-07-26T15:25:59.900Z,23.10
2022-07-26T15:28:27.472Z,22.90
2022-07-26T15:30:55.080Z,23.50
2022-07-26T15:33:22.604Z,22.90
2022-07-26T15:35:50.819Z,23.40
2022-07-26T15:38:18.579Z,22.30
2022-07-26T15:40:46.063Z,23.40
2022-07-26T15:43:48.152Z,23.80
2022-07-26T15:46:13.663Z,24.40
2022-07-26T15:48:43.612Z,25.40
2022-07-26T15:51:11.083Z,25.60
2022-07-26T15:53:43.087Z,24.80
2022-07-26T15:56:13.859Z,23.70
2022-07-26T15:58:41.944Z,24.20
2022-07-26T16:01:09.395Z,24.90
2022-07-26T16:03:37.050Z,23.50
2022-07-26T16:08:43.150Z,23.70
2022-07-26T16:11:21.418Z,25.10
2022-07-26T16:13:49.313Z,24.30
2022-07-26T16:16:17.212Z,24.70
2022-07-26T16:23:40.486Z,25.10
2022-07-26T16:26:08.595Z,26.40
2022-07-26T16:28:36.606Z,28.00
2022-07-26T16:33:32.296Z,29.30
2022-07-26T16:38:33.816Z,30.70
2022-07-26T16:41:01.277Z,29.00
2022-07-26T16:45:56.887Z,29.10
2022-07-26T16:48:24.668Z,30.50
2022-07-26T16:50:51.973Z,30.20
2022-07-26T16:53:19.758Z,29.00
2022-07-26T16:55:49.701Z,32.70
2022-07-26T17:00:45.925Z,50.30
2022-07-26T17:03:15.953Z,55.00
2022-07-26T17:05:44.607Z,34.20
2022-07-26T17:08:12.055Z,36.40
2022-07-26T17:15:35.352Z,43.20
2022-07-26T17:20:31.079Z,40.40
2022-07-26T17:22:58.647Z,40.40
2022-07-26T17:25:26.185Z,44.00
2022-07-26T17:27:53.583Z,43.50
2022-07-26T17:30:21.295Z,44.80
2022-07-26T17:32:48.734Z,45.10
2022-07-26T17:35:16.571Z,48.10
2022-07-26T17:37:45.204Z,47.90
2022-07-26T17:40:16.416Z,50.10
2022-07-26T17:42:44.075Z,50.60
2022-07-26T17:45:12.040Z,69.80
2022-07-26T17:47:39.470Z,70.20
2022-07-26T17:50:34.070Z,67.10
2022-07-26T17:52:56.112Z,74.20
2022-07-26T17:55:23.641Z,62.40
2022-07-26T17:57:54.722Z,63.00
2022-07-26T18:00:28.614Z,60.80
2022-07-26T18:05:32.049Z,63.60
2022-07-26T18:08:00.952Z,64.60
2022-07-26T18:10:29.109Z,65.70
2022-07-26T18:12:56.835Z,68.30
2022-07-26T18:15:24.398Z,68.70
2022-07-26T18:17:51.925Z,70.60
2022-07-26T18:20:19.476Z,77.40
2022-07-26T18:22:50.428Z,90.40
2022-07-26T18:27:46.045Z,89.10
2022-07-26T18:30:13.622Z,87.60
2022-07-26T18:35:09.254Z,82.50
2022-07-26T18:37:39.222Z,83.40
2022-07-26T18:40:07.320Z,86.90
2022-07-26T18:45:06.936Z,95.20
2022-07-26T18:47:34.594Z,95.90
2022-07-26T18:52:31.992Z,97.60
2022-07-26T18:57:29.185Z,99.30
2022-07-26T18:59:57.217Z,96.80
2022-07-26T19:04:52.989Z,99.70
2022-07-26T19:09:48.125Z,99.90
2022-07-26T19:12:15.633Z,99.90
2022-07-26T19:14:45.777Z,99.90
2022-07-26T19:17:13.048Z,99.90
2022-07-26T19:19:41.409Z,99.90
2022-07-26T19:22:08.875Z,99.90
2022-07-26T19:24:39.017Z,99.90
2022-07-26T19:27:09.722Z,99.90
2022-07-26T19:29:38.242Z,99.90
2022-07-26T19:32:06.197Z,99.90
2022-07-26T19:34:33.526Z,99.90
2022-07-26T19:39:28.884Z,99.90
2022-07-26T19:41:56.227Z,99.90
2022-07-26T19:44:23.749Z,99.90
2022-07-26T19:46:56.982Z,99.90
2022-07-26T19:49:25.470Z,99.90
2022-07-26T19:51:55.546Z,99.90
2022-07-26T19:54:23.248Z,99.90
2022-07-26T19:56:55.892Z,99.90
2022-07-26T19:59:24.732Z,99.90
2022-07-26T20:01:55.233Z,99.90
2022-07-26T20:06:54.991Z,99.90
2022-07-26T20:09:22.569Z,99.90
2022-07-26T20:11:51.196Z,99.90
2022-07-26T20:16:54.298Z,99.90
2022-07-26T20:21:51.932Z,99.90
2022-07-26T20:24:21.723Z,99.90
2022-07-26T20:26:51.970Z,99.90
2022-07-26T20:29:21.942Z,99.90
2022-07-26T20:31:49.502Z,99.90
2022-07-26T20:34:16.772Z,99.90
2022-07-26T20:36:44.456Z,99.90
2022-07-26T20:41:40.609Z,99.90
2022-07-26T20:44:08.913Z,99.90
2022-07-26T20:46:40.163Z,99.90
2022-07-26T20:49:08.851Z,99.90
2022-07-26T20:51:36.947Z,99.90
2022-07-26T20:54:04.707Z,99.90
2022-07-26T20:56:35.210Z,99.90
2022-07-26T21:01:32.771Z,99.90
2022-07-26T21:04:00.438Z,99.90
2022-07-26T21:06:30.421Z,99.90
2022-07-26T21:08:58.048Z,99.90
2022-07-26T21:11:25.841Z,99.90
2022-07-26T21:13:53.678Z,99.90
2022-07-26T21:18:52.614Z,99.90
2022-07-26T21:21:21.578Z,99.90
2022-07-26T21:23:51.647Z,99.90
2022-07-26T21:26:19.229Z,99.90
2022-07-26T21:28:49.184Z,99.90
2022-07-26T21:31:16.754Z,99.90
2022-07-26T21:33:45.066Z,99.90
2022-07-26T21:38:42.644Z,99.90
2022-07-26T21:43:54.417Z,99.90
2022-07-26T21:46:22.271Z,99.90
2022-07-26T21:48:50.202Z,99.90
2022-07-26T21:51:17.697Z,99.90
2022-07-26T21:53:45.325Z,99.90
2022-07-26T21:56:12.823Z,99.90
2022-07-26T21:58:40.917Z,99.90
2022-07-26T22:01:11.246Z,99.90
2022-07-26T22:03:39.687Z,99.90
2022-07-26T22:06:08.227Z,99.90
2022-07-26T22:08:35.806Z,99.90
2022-07-26T22:11:03.550Z,99.90
2022-07-26T22:13:31.254Z,99.90
2022-07-26T22:15:58.655Z,99.90
2022-07-26T22:18:26.246Z,99.90
2022-07-26T22:20:56.693Z,99.90
2022-07-26T22:23:30.157Z,99.90
2022-07-26T22:26:02.334Z,99.90
2022-07-26T22:28:31.026Z,99.90
2022-07-26T22:33:26.480Z,99.90
2022-07-26T22:35:53.830Z,99.90
2022-07-26T22:38:21.243Z,99.90
2022-07-26T22:40:49.188Z,99.90
2022-07-26T22:43:16.903Z,99.90
2022-07-26T22:45:44.775Z,99.90
2022-07-26T22:53:51.299Z,99.90
2022-07-26T22:58:48.140Z,99.90
2022-07-26T23:01:16.842Z,99.90
2022-07-26T23:03:49.695Z,99.90
2022-07-26T23:06:31.153Z,99.90
2022-07-26T23:08:59.440Z,99.90
2022-07-26T23:11:26.970Z,99.90
2022-07-26T23:13:58.851Z,99.90
2022-07-26T23:18:58.951Z,99.90
2022-07-26T23:21:27.783Z,99.90
2022-07-26T23:23:55.538Z,99.90
2022-07-26T23:26:23.126Z,99.90
2022-07-26T23:28:50.621Z,99.90
2022-07-26T23:31:18.172Z,99.90
2022-07-26T23:33:53.453Z,99.90
2022-07-26T23:38:59.776Z,99.90
2022-07-26T23:41:27.802Z,99.90
2022-07-26T23:43:55.987Z,99.90
2022-07-26T23:46:24.691Z,99.90
2022-07-26T23:48:52.373Z,99.90
2022-07-26T23:51:20.353Z,99.90
2022-07-26T23:53:48.054Z,99.90
2022-07-26T23:56:15.636Z,99.90
2022-07-26T23:58:43.443Z,99.90
